This is the latest recevied weather packets stored in our database for station/object EA4TN. If no packets are shown the sender has not sent any weather packets the latest 10 day(s).
| Time | Temp. | Humidity | Pressure | Rain* | Wind** | Luminosity | Snow |
|---|---|---|---|---|---|---|---|
| 1777663217 | 23.33° C | 36% | 1017.3 hPa | 0 mm | - | - | - |
| 1777656017 | 26.11° C | 29% | 1017 hPa | 0 mm | - | - | - |
| 1777654817 | 25.56° C | 31% | 1017 hPa | 0 mm | - | - | - |
| 1777653017 | 25.56° C | 31% | 1017.1 hPa | 0 mm | - | - | - |
| 1777651817 | 25.56° C | 30% | 1017.2 hPa | 0 mm | - | - | - |
| 1777651237 | 25.56° C | 31% | 1017.4 hPa | 0 mm | - | - | - |
| 1777648217 | 26.11° C | 33% | 1017.6 hPa | 0 mm | - | - | - |
| 1777641016 | 23.89° C | 38% | 1018.8 hPa | 0 mm | - | - | - |
| 1777637415 | 23.33° C | 42% | 1019.3 hPa | 0 mm | - | - | - |
| 1777636855 | 23.33° C | 42% | 1019.5 hPa | 0 mm | - | - | - |
| 1777634415 | 22.22° C | 46% | 1019.7 hPa | 0 mm | - | - | - |
| 1777632015 | 21.11° C | 49% | 1020 hPa | 0 mm | - | - | - |
| 1777628416 | 18.89° C | 59% | 1020.1 hPa | 0 mm | - | - | - |
| 1777615816 | 11.11° C | 81% | 1018.8 hPa | 0 mm | - | - | - |
| 1777612216 | 11.67° C | 80% | 1018.6 hPa | 0 mm | - | - | - |
| 1777606816 | 12.22° C | 78% | 1017.7 hPa | 0 mm | - | - | - |
| 1777605616 | 12.22° C | 78% | 1017.8 hPa | 0 mm | - | - | - |
| 1777599616 | 13.89° C | 72% | 1017.7 hPa | 0 mm | - | - | - |
| 1777598416 | 13.89° C | 71% | 1017.8 hPa | 0 mm | - | - | - |
| 1777584615 | 17.78° C | 55% | 1017.5 hPa | 0 mm | - | - | - |
| 1777579815 | 18.33° C | 50% | 1016.8 hPa | 0 mm | - | - | - |
| 1777577416 | 19.44° C | 47% | 1016 hPa | 0 mm | - | - | - |
| 1777573215 | 22.22° C | 36% | 1015.5 hPa | 0 mm | - | - | - |
| 1777572016 | 22.22° C | 37% | 1015.3 hPa | 0 mm | - | - | - |
| 1777571416 | 22.22° C | 37% | 1015.4 hPa | 0 mm | - | - | - |
* Rain latest hour (hover to see other rain measurements)
** Current wind speed in m/s (hover to see current wind gust speed)